Time;durP1;ratioP1;P1;durP2;ratioP2;P2;SDS_P1;SDS_P2;PMS_P1;PMS_P2;Temp;Humidity;BMP_temperature;BMP_pressure;BME280_temperature;BME280_humidity;BME280_pressure;Samples;Min_cycle;Max_cycle;Signal;HPM_P1;HPM_P2
2022/11/09 00:01:06;;;;;;;;;;;;;;;;;;6249724;22;20351;-85
2022/11/09 00:03:32;;;;;;;;;;;;;;;;;;6249889;22;19911;-86
2022/11/09 00:05:58;;;;;;;;;;;;;;;;;;6249673;22;19917;-86
2022/11/09 00:08:24;;;;;;;;;;;;;;;;;;6249591;22;19957;-85
2022/11/09 00:10:50;;;;;;;;;;;;;;;;;;6249645;22;19911;-85
2022/11/09 00:13:16;;;;;;;;;;;;;;;;;;6249630;22;19915;-85
2022/11/09 00:15:42;;;;;;;;;;;;;;;;;;6249513;22;19915;-85
2022/11/09 00:18:08;;;;;;;;;;;;;;;;;;6249493;22;19911;-85
2022/11/09 00:20:34;;;;;;;;;;;;;;;;;;6224439;22;19911;-85
2022/11/09 00:23:00;;;;;;;;;;;;;;;;;;6224278;22;19937;-85
2022/11/09 00:25:25;;;;;;;;;;;;;;;;;;6249601;22;19915;-85
2022/11/09 00:27:51;;;;;;;;;;;;;;;;;;6249387;22;19919;-85
2022/11/09 00:30:17;;;;;;;;;;;;;;;;;;6249602;22;20360;-85
2022/11/09 00:32:43;;;;;;;;;;;;;;;;;;6276861;22;19911;-85
2022/11/09 00:35:09;;;;;;;;;;;;;;;;;;6249378;22;19915;-85
2022/11/09 00:37:35;;;;;;;;;;;;;;;;;;6249508;22;20321;-85
2022/11/09 00:40:01;;;;;;;;;;;;;;;;;;6249402;22;19918;-86
2022/11/09 00:42:27;;;;;;;;;;;;;;;;;;6249417;22;20252;-86
2022/11/09 00:44:53;;;;;;;;;;;;;;;;;;6249275;22;20248;-86
2022/11/09 00:47:19;;;;;;;;;;;;;;;;;;6249128;22;19911;-85
2022/11/09 00:49:44;;;;;;;;;;;;;;;;;;6249276;22;19917;-86
2022/11/09 00:52:10;;;;;;;;;;;;;;;;;;6249364;22;20034;-85
2022/11/09 00:54:36;;;;;;;;;;;;;;;;;;6249249;22;20248;-85
2022/11/09 00:57:02;;;;;;;;;;;;;;;;;;6276226;22;19964;-85
2022/11/09 00:59:28;;;;;;;;;;;;;;;;;;6249302;22;19946;-85
2022/11/09 01:01:54;;;;;;;;;;;;;;;;;;6223384;22;19915;-85
2022/11/09 01:04:20;;;;;;;;;;;;;;;;;;6223678;22;19911;-85
2022/11/09 01:06:46;;;;;;;;;;;;;;;;;;6249021;22;19919;-85
2022/11/09 01:09:12;;;;;;;;;;;;;;;;;;6249113;22;19961;-85
2022/11/09 01:11:37;;;;;;;;;;;;;;;;;;6249324;22;19911;-85
2022/11/09 01:14:03;;;;;;;;;;;;;;;;;;6248950;22;20090;-85
2022/11/09 01:16:29;;;;;;;;;;;;;;;;;;6223535;22;20275;-85
2022/11/09 01:18:55;;;;;;;;;;;;;;;;;;6249067;22;19914;-85
2022/11/09 01:21:21;;;;;;;;;;;;;;;;;;6248954;22;19917;-85
2022/11/09 01:23:47;;;;;;;;;;;;;;;;;;6223661;22;19914;-85
2022/11/09 01:26:13;;;;;;;;;;;;;;;;;;6223645;22;19920;-85
2022/11/09 01:28:39;;;;;;;;;;;;;;;;;;6249072;22;19911;-85
2022/11/09 01:31:05;;;;;;;;;;;;;;;;;;6248849;22;19911;-85
2022/11/09 01:33:31;;;;;;;;;;;;;;;;;;6249074;22;19973;-84
2022/11/09 01:35:56;;;;;;;;;;;;;;;;;;6248798;22;19915;-85
2022/11/09 01:38:22;;;;;;;;;;;;;;;;;;6248849;22;19911;-85
2022/11/09 01:40:48;;;;;;;;;;;;;;;;;;6248831;22;20320;-85
2022/11/09 01:43:14;;;;;;;;;;;;;;;;;;6276252;22;19911;-85
2022/11/09 01:45:40;;;;;;;;;;;;;;;;;;6248860;22;19977;-85
2022/11/09 01:48:06;;;;;;;;;;;;;;;;;;6248657;22;19915;-85
2022/11/09 01:50:32;;;;;;;;;;;;;;;;;;6223425;22;19946;-85
2022/11/09 01:52:58;;;;;;;;;;;;;;;;;;6223452;22;19918;-85
2022/11/09 01:55:25;;;;;;;;;;;;;;;;;;6248668;22;19915;-85
2022/11/09 01:57:51;;;;;;;;;;;;;;;;;;6248675;22;19918;-85
2022/11/09 02:00:17;;;;;;;;;;;;;;;;;;6222986;22;19986;-85
2022/11/09 02:02:42;;;;;;;;;;;;;;;;;;6223582;22;19942;-85
2022/11/09 02:05:08;;;;;;;;;;;;;;;;;;6248658;22;19992;-85
2022/11/09 02:07:34;;;;;;;;;;;;;;;;;;6248533;22;20156;-85
2022/11/09 02:10:00;;;;;;;;;;;;;;;;;;6248667;22;19912;-85
2022/11/09 02:12:26;;;;;;;;;;;;;;;;;;6248618;22;19915;-85
2022/11/09 02:14:52;;;;;;;;;;;;;;;;;;6248081;22;20024;-85
2022/11/09 02:17:18;;;;;;;;;;;;;;;;;;6223229;22;19961;-85
2022/11/09 02:19:44;;;;;;;;;;;;;;;;;;6248724;22;19911;-85
2022/11/09 02:22:10;;;;;;;;;;;;;;;;;;6223158;22;20329;-85
2022/11/09 02:24:36;;;;;;;;;;;;;;;;;;6223318;22;19965;-85
2022/11/09 02:27:02;;;;;;;;;;;;;;;;;;6248397;22;19986;-85
2022/11/09 02:29:28;;;;;;;;;;;;;;;;;;6248447;22;20313;-85
2022/11/09 02:31:54;;;;;;;;;;;;;;;;;;6248527;22;19937;-85
2022/11/09 02:34:20;;;;;;;;;;;;;;;;;;6223048;22;19915;-85
2022/11/09 02:36:46;;;;;;;;;;;;;;;;;;6248535;22;19915;-85
2022/11/09 02:39:12;;;;;;;;;;;;;;;;;;6248658;22;19911;-85
2022/11/09 02:41:38;;;;;;;;;;;;;;;;;;6248426;22;20256;-85
2022/11/09 02:44:04;;;;;;;;;;;;;;;;;;6248334;22;19918;-85
2022/11/09 02:46:29;;;;;;;;;;;;;;;;;;6248356;22;19911;-85
2022/11/09 02:48:55;;;;;;;;;;;;;;;;;;6248757;22;20244;-84
2022/11/09 02:51:21;;;;;;;;;;;;;;;;;;6248395;22;19911;-85
2022/11/09 02:53:47;;;;;;;;;;;;;;;;;;6223056;22;19911;-85
2022/11/09 02:56:13;;;;;;;;;;;;;;;;;;6248382;22;19911;-85
2022/11/09 02:58:39;;;;;;;;;;;;;;;;;;6248255;22;19929;-85
2022/11/09 03:01:05;;;;;;;;;;;;;;;;;;6222846;22;19916;-85
2022/11/09 03:03:31;;;;;;;;;;;;;;;;;;6223009;22;19911;-85
2022/11/09 03:05:57;;;;;;;;;;;;;;;;;;6248479;22;19915;-85
2022/11/09 03:08:23;;;;;;;;;;;;;;;;;;6248314;22;19938;-84
2022/11/09 03:10:49;;;;;;;;;;;;;;;;;;6248319;22;20325;-84
2022/11/09 03:13:15;;;;;;;;;;;;;;;;;;6248469;22;19918;-85
2022/11/09 03:15:40;;;;;;;;;;;;;;;;;;6248227;22;19915;-85
2022/11/09 03:18:06;;;;;;;;;;;;;;;;;;6248317;22;19919;-85
2022/11/09 03:20:32;;;;;;;;;;;;;;;;;;6222925;22;19981;-85
2022/11/09 03:22:58;;;;;;;;;;;;;;;;;;6248345;22;20287;-85
2022/11/09 03:25:24;;;;;;;;;;;;;;;;;;6248539;22;19911;-85
2022/11/09 03:27:50;;;;;;;;;;;;;;;;;;6249952;22;19911;-85
2022/11/09 03:30:17;;;;;;;;;;;;;;;;;;6250169;22;19915;-85
2022/11/09 03:32:43;;;;;;;;;;;;;;;;;;6250150;22;20329;-85
2022/11/09 03:35:09;;;;;;;;;;;;;;;;;;6249814;22;19915;-85
2022/11/09 03:37:35;;;;;;;;;;;;;;;;;;6249895;22;19911;-85
2022/11/09 03:40:01;;;;;;;;;;;;;;;;;;6249915;22;19942;-85
2022/11/09 03:42:27;;;;;;;;;;;;;;;;;;6249858;22;19911;-85
2022/11/09 03:44:53;;;;;;;;;;;;;;;;;;6249865;22;19911;-85
2022/11/09 03:47:19;;;;;;;;;;;;;;;;;;6249813;22;19918;-85
2022/11/09 03:49:45;;;;;;;;;;;;;;;;;;6249632;22;19911;-85
2022/11/09 03:52:11;;;;;;;;;;;;;;;;;;6249639;22;19986;-85
2022/11/09 03:54:36;;;;;;;;;;;;;;;;;;6249473;22;19954;-85
2022/11/09 03:57:02;;;;;;;;;;;;;;;;;;6249527;22;20005;-85
2022/11/09 03:59:28;;;;;;;;;;;;;;;;;;6249556;22;19911;-85
2022/11/09 04:01:54;;;;;;;;;;;;;;;;;;6249321;22;19923;-85
2022/11/09 04:04:20;;;;;;;;;;;;;;;;;;6249768;22;20249;-85
2022/11/09 04:06:46;;;;;;;;;;;;;;;;;;6249610;22;19942;-85
2022/11/09 04:09:12;;;;;;;;;;;;;;;;;;6249630;22;19965;-85
2022/11/09 04:11:38;;;;;;;;;;;;;;;;;;6224200;22;19911;-85
2022/11/09 04:14:04;;;;;;;;;;;;;;;;;;6249452;22;19915;-85
2022/11/09 04:16:30;;;;;;;;;;;;;;;;;;6224503;22;19911;-84
2022/11/09 04:18:55;;;;;;;;;;;;;;;;;;6249645;22;20000;-85
2022/11/09 04:21:21;;;;;;;;;;;;;;;;;;6249723;22;19918;-85
2022/11/09 04:23:48;;;;;;;;;;;;;;;;;;6249455;22;20273;-85
2022/11/09 04:26:14;;;;;;;;;;;;;;;;;;6249449;22;19911;-85
2022/11/09 04:28:40;;;;;;;;;;;;;;;;;;6249380;22;19915;-85
2022/11/09 04:31:06;;;;;;;;;;;;;;;;;;6249426;22;20005;-85
2022/11/09 04:33:32;;;;;;;;;;;;;;;;;;6224123;22;19911;-85
2022/11/09 04:35:57;;;;;;;;;;;;;;;;;;6249327;22;19915;-85
2022/11/09 04:38:23;;;;;;;;;;;;;;;;;;6223665;22;19915;-85
2022/11/09 04:40:49;;;;;;;;;;;;;;;;;;6249436;22;20324;-85
2022/11/09 04:43:15;;;;;;;;;;;;;;;;;;6249326;22;19942;-85
2022/11/09 04:45:41;;;;;;;;;;;;;;;;;;6249235;22;19911;-85
2022/11/09 04:48:07;;;;;;;;;;;;;;;;;;6249205;22;20289;-85
2022/11/09 04:50:33;;;;;;;;;;;;;;;;;;6249350;22;19941;-85
2022/11/09 04:52:59;;;;;;;;;;;;;;;;;;6249129;22;19917;-85
2022/11/09 04:55:25;;;;;;;;;;;;;;;;;;6223814;22;19926;-85
2022/11/09 04:57:50;;;;;;;;;;;;;;;;;;6249288;22;19915;-84
2022/11/09 05:00:16;;;;;;;;;;;;;;;;;;6244031;23;19946;-85
2022/11/09 05:02:42;;;;;;;;;;;;;;;;;;6244160;23;19961;-85
2022/11/09 05:05:08;;;;;;;;;;;;;;;;;;6244096;23;19911;-85
2022/11/09 05:07:34;;;;;;;;;;;;;;;;;;6244015;22;20222;-84
2022/11/09 05:10:00;;;;;;;;;;;;;;;;;;6244135;23;19911;-85
2022/11/09 05:12:26;;;;;;;;;;;;;;;;;;6244081;23;20355;-84
2022/11/09 05:14:52;;;;;;;;;;;;;;;;;;6193735;23;20273;-85
2022/11/09 05:17:18;;;;;;;;;;;;;;;;;;6243918;22;19915;-85
2022/11/09 05:19:44;;;;;;;;;;;;;;;;;;6243938;23;20285;-85
2022/11/09 05:24:54;;;;;;;;;;;;;;;;;;6244011;23;19912;-85
2022/11/09 05:27:20;;;;;;;;;;;;;;;;;;6243897;22;19911;-85
2022/11/09 05:29:46;;;;;;;;;;;;;;;;;;6243885;23;20498;-85
2022/11/09 05:32:12;;;;;;;;;;;;;;;;;;6243890;23;19965;-85
2022/11/09 05:34:38;;;;;;;;;;;;;;;;;;6243682;23;19915;-85
2022/11/09 05:37:04;;;;;;;;;;;;;;;;;;6218414;23;19961;-85
2022/11/09 05:39:30;;;;;;;;;;;;;;;;;;6243872;23;19999;-85
2022/11/09 05:41:56;;;;;;;;;;;;;;;;;;6242893;23;19921;-85
2022/11/09 05:44:22;;;;;;;;;;;;;;;;;;6243830;23;20318;-85
2022/11/09 05:46:47;;;;;;;;;;;;;;;;;;6243770;22;19911;-85
2022/11/09 05:49:13;;;;;;;;;;;;;;;;;;6243242;23;19911;-85
2022/11/09 05:51:39;;;;;;;;;;;;;;;;;;6243685;23;19918;-87
2022/11/09 05:54:08;;;;;;;;;;;;;;;;;;6245410;23;19934;-85
2022/11/09 05:56:34;;;;;;;;;;;;;;;;;;6243624;22;19915;-85
2022/11/09 05:59:00;;;;;;;;;;;;;;;;;;6218474;23;19911;-85
2022/11/09 06:01:26;;;;;;;;;;;;;;;;;;6240494;22;19981;-85
2022/11/09 06:03:52;;;;;;;;;;;;;;;;;;6248578;22;20333;-85
2022/11/09 06:06:17;;;;;;;;;;;;;;;;;;6223244;22;19915;-85
2022/11/09 06:08:43;;;;;;;;;;;;;;;;;;6248668;22;20347;-84
2022/11/09 06:11:09;;;;;;;;;;;;;;;;;;6248696;22;19915;-84
2022/11/09 06:13:35;;;;;;;;;;;;;;;;;;6248589;22;19911;-85
2022/11/09 06:16:01;;;;;;;;;;;;;;;;;;6223135;22;19994;-85
2022/11/09 06:18:27;;;;;;;;;;;;;;;;;;6248637;22;19911;-84
2022/11/09 06:20:53;;;;;;;;;;;;;;;;;;6248577;22;19957;-84
2022/11/09 06:23:24;;;;;;;;;;;;;;;;;;6248646;22;20541;-84
2022/11/09 06:25:50;;;;;;;;;;;;;;;;;;6248552;22;19974;-84
2022/11/09 06:28:16;;;;;;;;;;;;;;;;;;6248419;22;19946;-84
2022/11/09 06:30:41;;;;;;;;;;;;;;;;;;6223248;22;19947;-84
2022/11/09 06:33:09;;;;;;;;;;;;;;;;;;6248433;22;19989;-85
2022/11/09 06:35:34;;;;;;;;;;;;;;;;;;6248516;22;20121;-85
2022/11/09 06:38:00;;;;;;;;;;;;;;;;;;6248441;22;20055;-84
2022/11/09 06:40:26;;;;;;;;;;;;;;;;;;6248650;22;20325;-85
2022/11/09 06:42:52;;;;;;;;;;;;;;;;;;6223066;22;19911;-85
2022/11/09 06:45:18;;;;;;;;;;;;;;;;;;6248774;22;19911;-84
2022/11/09 06:47:44;;;;;;;;;;;;;;;;;;6222857;22;19911;-84
2022/11/09 06:50:11;;;;;;;;;;;;;;;;;;6248494;22;20240;-85
2022/11/09 06:52:37;;;;;;;;;;;;;;;;;;6248618;22;19918;-85
2022/11/09 06:55:03;;;;;;;;;;;;;;;;;;6248412;22;19915;-84
2022/11/09 06:57:28;;;;;;;;;;;;;;;;;;6248514;22;20189;-84
2022/11/09 06:59:56;;;;;;;;;;;;;;;;;;6248163;22;19911;-84
2022/11/09 07:02:22;;;;;;;;;;;;;;;;;;6250464;22;19911;-84
2022/11/09 07:04:47;;;;;;;;;;;;;;;;;;6250474;22;20202;-83
2022/11/09 07:07:13;;;;;;;;;;;;;;;;;;6250233;22;19917;-84
2022/11/09 07:09:39;;;;;;;;;;;;;;;;;;6250271;22;20233;-84
2022/11/09 07:12:05;;;;;;;;;;;;;;;;;;6250361;22;19911;-84
2022/11/09 07:14:31;;;;;;;;;;;;;;;;;;6250032;22;19961;-82
2022/11/09 07:16:57;;;;;;;;;;;;;;;;;;6277295;22;19911;-84
2022/11/09 07:19:23;;;;;;;;;;;;;;;;;;6250284;22;19911;-84
2022/11/09 07:21:49;;;;;;;;;;;;;;;;;;6250154;22;20295;-84
2022/11/09 07:24:15;;;;;;;;;;;;;;;;;;6250183;22;19982;-84
2022/11/09 07:26:41;;;;;;;;;;;;;;;;;;6250094;22;19911;-85
2022/11/09 07:29:07;;;;;;;;;;;;;;;;;;6250148;22;19997;-84
2022/11/09 07:31:32;;;;;;;;;;;;;;;;;;6224702;22;19919;-84
2022/11/09 07:34:03;;;;;;;;;;;;;;;;;;6250071;22;19948;-87
2022/11/09 07:36:30;;;;;;;;;;;;;;;;;;6248374;22;19918;-84
2022/11/09 07:38:56;;;;;;;;;;;;;;;;;;6224529;22;20386;-84
2022/11/09 07:41:22;;;;;;;;;;;;;;;;;;6276839;22;19911;-84
2022/11/09 07:43:48;;;;;;;;;;;;;;;;;;6277249;22;19911;-85
2022/11/09 07:46:14;;;;;;;;;;;;;;;;;;6224475;22;20069;-84
2022/11/09 07:48:39;;;;;;;;;;;;;;;;;;6249804;22;20169;-85
2022/11/09 07:51:05;;;;;;;;;;;;;;;;;;6250154;22;19911;-85
2022/11/09 07:53:31;;;;;;;;;;;;;;;;;;6249954;22;19918;-85
2022/11/09 07:55:57;;;;;;;;;;;;;;;;;;6249854;22;19915;-84
2022/11/09 07:58:23;;;;;;;;;;;;;;;;;;6249578;22;19911;-85
2022/11/09 08:00:49;;;;;;;;;;;;;;;;;;6219066;23;20321;-84
2022/11/09 08:03:15;;;;;;;;;;;;;;;;;;6223221;22;19918;-85
2022/11/09 08:05:42;;;;;;;;;;;;;;;;;;6249669;22;19917;-85
2022/11/09 08:08:08;;;;;;;;;;;;;;;;;;6249562;22;19911;-85
2022/11/09 08:10:34;;;;;;;;;;;;;;;;;;6249705;22;19990;-85
2022/11/09 08:13:00;;;;;;;;;;;;;;;;;;6223788;22;20447;-85
2022/11/09 08:15:26;;;;;;;;;;;;;;;;;;6224057;22;19923;-86
2022/11/09 08:17:51;;;;;;;;;;;;;;;;;;6224081;22;20077;-87
2022/11/09 08:20:18;;;;;;;;;;;;;;;;;;6249307;22;19977;-83
2022/11/09 08:22:44;;;;;;;;;;;;;;;;;;6249664;22;19979;-84
2022/11/09 08:25:10;;;;;;;;;;;;;;;;;;6249577;22;20252;-85
2022/11/09 08:27:39;;;;;;;;;;;;;;;;;;6249254;22;19915;-84
2022/11/09 08:30:04;;;;;;;;;;;;;;;;;;6224228;22;19918;-84
2022/11/09 08:32:30;;;;;;;;;;;;;;;;;;6249625;22;20248;-85
2022/11/09 08:34:56;;;;;;;;;;;;;;;;;;6223806;22;19925;-84
2022/11/09 08:37:22;;;;;;;;;;;;;;;;;;6223707;22;19911;-86
2022/11/09 08:39:48;;;;;;;;;;;;;;;;;;6223791;22;19918;-85
2022/11/09 08:42:14;;;;;;;;;;;;;;;;;;6248878;22;19911;-84
2022/11/09 08:44:43;;;;;;;;;;;;;;;;;;6276517;22;20248;-85
2022/11/09 08:47:09;;;;;;;;;;;;;;;;;;6249040;22;19911;-86
2022/11/09 08:49:35;;;;;;;;;;;;;;;;;;6249024;22;19911;-84
2022/11/09 08:52:01;;;;;;;;;;;;;;;;;;6249270;22;19911;-84
2022/11/09 08:54:27;;;;;;;;;;;;;;;;;;6249066;22;20264;-84
2022/11/09 08:56:52;;;;;;;;;;;;;;;;;;6248985;22;20248;-84
2022/11/09 08:59:18;;;;;;;;;;;;;;;;;;6249066;22;20328;-85
2022/11/09 09:01:44;;;;;;;;;;;;;;;;;;6248796;22;19915;-88
2022/11/09 09:04:10;;;;;;;;;;;;;;;;;;6223911;22;19919;-87
2022/11/09 09:06:36;;;;;;;;;;;;;;;;;;6249015;22;19945;-85
2022/11/09 09:09:02;;;;;;;;;;;;;;;;;;6223802;22;19911;-85
2022/11/09 09:11:28;;;;;;;;;;;;;;;;;;6223769;22;19935;-84
2022/11/09 09:13:55;;;;;;;;;;;;;;;;;;6248967;22;19911;-84
2022/11/09 09:16:21;;;;;;;;;;;;;;;;;;6248898;22;20379;-85
2022/11/09 09:18:47;;;;;;;;;;;;;;;;;;6248712;22;19911;-84
2022/11/09 09:21:13;;;;;;;;;;;;;;;;;;6248625;22;19918;-86
2022/11/09 09:23:39;;;;;;;;;;;;;;;;;;6248701;22;19961;-85
2022/11/09 09:26:05;;;;;;;;;;;;;;;;;;6248638;22;19964;-85
2022/11/09 09:28:31;;;;;;;;;;;;;;;;;;6248993;22;19953;-85
2022/11/09 09:30:57;;;;;;;;;;;;;;;;;;6248772;22;20442;-86
2022/11/09 09:33:23;;;;;;;;;;;;;;;;;;6223538;22;19918;-88
2022/11/09 09:35:50;;;;;;;;;;;;;;;;;;6223443;22;19954;-84
2022/11/09 09:38:16;;;;;;;;;;;;;;;;;;6223299;22;20333;-84
2022/11/09 09:40:42;;;;;;;;;;;;;;;;;;6249033;22;19911;-85
2022/11/09 09:43:07;;;;;;;;;;;;;;;;;;6223516;22;19911;-86
2022/11/09 09:45:33;;;;;;;;;;;;;;;;;;6248914;22;19946;-88
2022/11/09 09:47:59;;;;;;;;;;;;;;;;;;6248868;22;19911;-88
2022/11/09 09:50:25;;;;;;;;;;;;;;;;;;6223520;22;19911;-86
2022/11/09 09:52:51;;;;;;;;;;;;;;;;;;6248630;22;19953;-84
2022/11/09 09:55:17;;;;;;;;;;;;;;;;;;6248598;22;19926;-84
2022/11/09 09:57:43;;;;;;;;;;;;;;;;;;6248545;22;20222;-84
2022/11/09 10:00:09;;;;;;;;;;;;;;;;;;6223019;22;19915;-84
2022/11/09 10:02:35;;;;;;;;;;;;;;;;;;6248879;22;19911;-85
2022/11/09 10:05:01;;;;;;;;;;;;;;;;;;6248597;22;19978;-84
2022/11/09 10:07:27;;;;;;;;;;;;;;;;;;6248540;22;19915;-85
2022/11/09 10:09:53;;;;;;;;;;;;;;;;;;6248715;22;19960;-85
2022/11/09 10:12:18;;;;;;;;;;;;;;;;;;6248587;22;19914;-84
2022/11/09 10:14:44;;;;;;;;;;;;;;;;;;6248525;22;19915;-84
2022/11/09 10:17:10;;;;;;;;;;;;;;;;;;6248462;22;19914;-85
2022/11/09 10:19:36;;;;;;;;;;;;;;;;;;6248764;22;19921;-85
2022/11/09 10:22:02;;;;;;;;;;;;;;;;;;6221404;22;19990;-85
2022/11/09 10:24:28;;;;;;;;;;;;;;;;;;6247995;22;19921;-85
2022/11/09 10:26:54;;;;;;;;;;;;;;;;;;6248269;22;19918;-85
2022/11/09 10:29:20;;;;;;;;;;;;;;;;;;6275823;22;20317;-84
2022/11/09 10:31:46;;;;;;;;;;;;;;;;;;6248548;22;19915;-85
2022/11/09 10:34:12;;;;;;;;;;;;;;;;;;6248377;22;20384;-85
2022/11/09 10:36:37;;;;;;;;;;;;;;;;;;6249790;22;20383;-85
2022/11/09 10:39:03;;;;;;;;;;;;;;;;;;6252748;22;19915;-86
2022/11/09 10:41:29;;;;;;;;;;;;;;;;;;6250560;22;20275;-85
2022/11/09 10:43:55;;;;;;;;;;;;;;;;;;6250380;22;19911;-85
2022/11/09 10:46:21;;;;;;;;;;;;;;;;;;6250313;22;20087;-85
2022/11/09 10:48:47;;;;;;;;;;;;;;;;;;6225167;22;19946;-85
2022/11/09 10:51:13;;;;;;;;;;;;;;;;;;6224919;22;19920;-85
2022/11/09 10:53:39;;;;;;;;;;;;;;;;;;6250405;22;19915;-85
2022/11/09 10:56:05;;;;;;;;;;;;;;;;;;6250300;22;19930;-85
2022/11/09 10:58:31;;;;;;;;;;;;;;;;;;6250334;22;19911;-85
2022/11/09 11:00:56;;;;;;;;;;;;;;;;;;6251035;22;19926;-87
2022/11/09 11:03:23;;;;;;;;;;;;;;;;;;6250251;22;19961;-87
2022/11/09 11:05:49;;;;;;;;;;;;;;;;;;6250252;22;19946;-85
2022/11/09 11:08:15;;;;;;;;;;;;;;;;;;6249931;22;19923;-85
2022/11/09 11:10:40;;;;;;;;;;;;;;;;;;6249974;22;19911;-85
2022/11/09 11:13:06;;;;;;;;;;;;;;;;;;6224725;22;19958;-85
2022/11/09 11:15:32;;;;;;;;;;;;;;;;;;6249863;22;19986;-85
2022/11/09 11:17:58;;;;;;;;;;;;;;;;;;6249956;22;20344;-85
2022/11/09 11:20:24;;;;;;;;;;;;;;;;;;6250014;22;20248;-84
2022/11/09 11:22:50;;;;;;;;;;;;;;;;;;6249979;22;19957;-86
2022/11/09 11:25:16;;;;;;;;;;;;;;;;;;6250044;22;19915;-87
2022/11/09 11:27:42;;;;;;;;;;;;;;;;;;6224591;22;19911;-88
2022/11/09 11:30:08;;;;;;;;;;;;;;;;;;6250106;22;19911;-86
2022/11/09 11:32:34;;;;;;;;;;;;;;;;;;6250135;22;19911;-85
2022/11/09 11:34:59;;;;;;;;;;;;;;;;;;6249928;22;20347;-84
2022/11/09 11:37:25;;;;;;;;;;;;;;;;;;6224643;22;20337;-84
2022/11/09 11:39:51;;;;;;;;;;;;;;;;;;6224671;22;19911;-84
2022/11/09 11:42:17;;;;;;;;;;;;;;;;;;6250024;22;19930;-83
2022/11/09 11:44:43;;;;;;;;;;;;;;;;;;6224648;22;20248;-84
2022/11/09 11:47:09;;;;;;;;;;;;;;;;;;6250013;22;19918;-84
2022/11/09 11:49:35;;;;;;;;;;;;;;;;;;6249855;22;20384;-85
2022/11/09 11:52:01;;;;;;;;;;;;;;;;;;6224567;22;19954;-85
2022/11/09 11:54:27;;;;;;;;;;;;;;;;;;6224453;22;19966;-84
2022/11/09 11:56:54;;;;;;;;;;;;;;;;;;6277192;22;20277;-86
2022/11/09 11:59:21;;;;;;;;;;;;;;;;;;6249631;22;19911;-86
2022/11/09 12:01:49;;;;;;;;;;;;;;;;;;6249564;22;19915;-86
2022/11/09 12:04:15;;;;;;;;;;;;;;;;;;6224799;22;20364;-85
2022/11/09 12:06:41;;;;;;;;;;;;;;;;;;6224539;22;19926;-85
2022/11/09 12:09:07;;;;;;;;;;;;;;;;;;6248157;22;20006;-85
2022/11/09 12:11:34;;;;;;;;;;;;;;;;;;6249974;22;19972;-85
2022/11/09 12:14:00;;;;;;;;;;;;;;;;;;6224288;22;19926;-85
2022/11/09 12:16:26;;;;;;;;;;;;;;;;;;6249298;22;19922;-84
2022/11/09 12:18:52;;;;;;;;;;;;;;;;;;6224222;22;19911;-86
2022/11/09 12:21:18;;;;;;;;;;;;;;;;;;6249344;22;19918;-85
2022/11/09 12:23:43;;;;;;;;;;;;;;;;;;6249454;22;20244;-86
2022/11/09 12:26:10;;;;;;;;;;;;;;;;;;6249718;22;20372;-85
2022/11/09 12:28:35;;;;;;;;;;;;;;;;;;6249392;22;20259;-86
2022/11/09 12:31:01;;;;;;;;;;;;;;;;;;6249384;22;19982;-85
2022/11/09 12:33:28;;;;;;;;;;;;;;;;;;6249144;22;20385;-84
2022/11/09 12:35:54;;;;;;;;;;;;;;;;;;6249306;22;19915;-85
2022/11/09 12:38:20;;;;;;;;;;;;;;;;;;6223866;22;19996;-86
2022/11/09 12:40:47;;;;;;;;;;;;;;;;;;6249326;22;20313;-86
2022/11/09 12:43:14;;;;;;;;;;;;;;;;;;6249460;22;20343;-85
2022/11/09 12:45:40;;;;;;;;;;;;;;;;;;6248643;22;19918;-85
2022/11/09 12:48:06;;;;;;;;;;;;;;;;;;6249062;22;19915;-85
2022/11/09 12:50:32;;;;;;;;;;;;;;;;;;6249187;22;19911;-84
2022/11/09 12:52:58;;;;;;;;;;;;;;;;;;6249252;22;19918;-85
2022/11/09 12:55:24;;;;;;;;;;;;;;;;;;6223922;22;19929;-84
2022/11/09 12:57:50;;;;;;;;;;;;;;;;;;6248782;22;19982;-85
2022/11/09 13:00:16;;;;;;;;;;;;;;;;;;6223543;22;20307;-86
2022/11/09 13:02:41;;;;;;;;;;;;;;;;;;6223596;22;19911;-84
2022/11/09 13:05:07;;;;;;;;;;;;;;;;;;6276508;22;19918;-84
2022/11/09 13:07:33;;;;;;;;;;;;;;;;;;6248961;22;19911;-85
2022/11/09 13:09:59;;;;;;;;;;;;;;;;;;6248901;22;19911;-85
2022/11/09 13:12:25;;;;;;;;;;;;;;;;;;6248919;22;19964;-86
2022/11/09 13:14:51;;;;;;;;;;;;;;;;;;6220690;22;19915;-87
2022/11/09 13:17:17;;;;;;;;;;;;;;;;;;6248292;22;19977;-86
2022/11/09 13:19:43;;;;;;;;;;;;;;;;;;6248760;22;19911;-86
2022/11/09 13:22:09;;;;;;;;;;;;;;;;;;6248617;22;19977;-86
2022/11/09 13:24:34;;;;;;;;;;;;;;;;;;6248286;22;19986;-87
2022/11/09 13:27:00;;;;;;;;;;;;;;;;;;6248439;22;19946;-86
2022/11/09 13:29:26;;;;;;;;;;;;;;;;;;6248384;22;20336;-86
2022/11/09 13:31:52;;;;;;;;;;;;;;;;;;6222843;22;19999;-87
2022/11/09 13:34:18;;;;;;;;;;;;;;;;;;6222974;22;19951;-88
2022/11/09 13:36:44;;;;;;;;;;;;;;;;;;6223135;22;19911;-87
2022/11/09 13:39:10;;;;;;;;;;;;;;;;;;6248292;22;20359;-86
2022/11/09 13:41:36;;;;;;;;;;;;;;;;;;6222863;22;19915;-85
2022/11/09 13:44:02;;;;;;;;;;;;;;;;;;6222835;22;20296;-86
2022/11/09 13:46:27;;;;;;;;;;;;;;;;;;6247985;22;19918;-87
2022/11/09 13:48:53;;;;;;;;;;;;;;;;;;6248245;22;20289;-85
2022/11/09 13:51:19;;;;;;;;;;;;;;;;;;6248414;22;19991;-86
2022/11/09 13:53:45;;;;;;;;;;;;;;;;;;6248385;22;19949;-87
2022/11/09 13:56:11;;;;;;;;;;;;;;;;;;6248151;22;19915;-87
2022/11/09 13:58:37;;;;;;;;;;;;;;;;;;6248255;22;19918;-87
2022/11/09 14:01:03;;;;;;;;;;;;;;;;;;6247751;22;19961;-87
2022/11/09 14:03:29;;;;;;;;;;;;;;;;;;6222922;22;19915;-87
2022/11/09 14:05:55;;;;;;;;;;;;;;;;;;6248050;22;19911;-86
2022/11/09 14:08:21;;;;;;;;;;;;;;;;;;6222656;22;19919;-86
2022/11/09 14:10:46;;;;;;;;;;;;;;;;;;6247975;22;19915;-86
2022/11/09 14:13:12;;;;;;;;;;;;;;;;;;6248240;22;19918;-86
2022/11/09 14:15:38;;;;;;;;;;;;;;;;;;6247723;22;19922;-86
2022/11/09 14:18:06;;;;;;;;;;;;;;;;;;6247937;22;19911;-86
2022/11/09 14:20:31;;;;;;;;;;;;;;;;;;6222748;22;19918;-86
2022/11/09 14:22:57;;;;;;;;;;;;;;;;;;6248119;22;19911;-86
2022/11/09 14:25:23;;;;;;;;;;;;;;;;;;6247801;22;20002;-86
2022/11/09 14:27:55;;;;;;;;;;;;;;;;;;6247517;22;19915;-87
2022/11/09 14:30:21;;;;;;;;;;;;;;;;;;6247910;22;19918;-87
2022/11/09 14:32:47;;;;;;;;;;;;;;;;;;6247643;22;20329;-87
2022/11/09 14:35:13;;;;;;;;;;;;;;;;;;6222284;22;19922;-87
2022/11/09 14:37:39;;;;;;;;;;;;;;;;;;6247469;22;19911;-86
2022/11/09 14:40:05;;;;;;;;;;;;;;;;;;6222196;22;19918;-87
2022/11/09 14:42:31;;;;;;;;;;;;;;;;;;6247504;22;19911;-87
2022/11/09 14:44:57;;;;;;;;;;;;;;;;;;6247453;22;19925;-86
2022/11/09 14:47:23;;;;;;;;;;;;;;;;;;6247603;22;19918;-86
2022/11/09 14:49:49;;;;;;;;;;;;;;;;;;6222207;22;19942;-86
2022/11/09 14:52:15;;;;;;;;;;;;;;;;;;6247488;22;19918;-87
2022/11/09 14:54:41;;;;;;;;;;;;;;;;;;6222330;22;19915;-86
2022/11/09 14:57:07;;;;;;;;;;;;;;;;;;6247490;22;19956;-86
2022/11/09 14:59:33;;;;;;;;;;;;;;;;;;6222014;22;19911;-85
2022/11/09 15:01:59;;;;;;;;;;;;;;;;;;6247165;22;19915;-87
2022/11/09 15:04:25;;;;;;;;;;;;;;;;;;6222102;22;19911;-86
2022/11/09 15:06:51;;;;;;;;;;;;;;;;;;6247462;22;19998;-86
2022/11/09 15:09:17;;;;;;;;;;;;;;;;;;6247809;22;19950;-85
2022/11/09 15:11:43;;;;;;;;;;;;;;;;;;6247181;22;19946;-87
2022/11/09 15:14:09;;;;;;;;;;;;;;;;;;6247394;22;19911;-88
2022/11/09 15:16:35;;;;;;;;;;;;;;;;;;6221809;22;19918;-87
2022/11/09 15:19:01;;;;;;;;;;;;;;;;;;6222145;22;19930;-88
2022/11/09 15:21:27;;;;;;;;;;;;;;;;;;6248057;22;19911;-92
2022/11/09 15:23:53;;;;;;;;;;;;;;;;;;6247455;22;19933;-87
2022/11/09 15:26:20;;;;;;;;;;;;;;;;;;6249140;22;20257;-87
2022/11/09 15:28:46;;;;;;;;;;;;;;;;;;6249207;22;19911;-87
2022/11/09 15:31:13;;;;;;;;;;;;;;;;;;6223735;22;20383;-87
2022/11/09 15:33:39;;;;;;;;;;;;;;;;;;6249143;22;19911;-87
2022/11/09 15:36:05;;;;;;;;;;;;;;;;;;6248912;22;19921;-87
2022/11/09 15:38:31;;;;;;;;;;;;;;;;;;6223740;22;20234;-87
2022/11/09 15:40:57;;;;;;;;;;;;;;;;;;6223458;22;19911;-87
2022/11/09 15:43:23;;;;;;;;;;;;;;;;;;6248795;22;19965;-87
2022/11/09 15:45:49;;;;;;;;;;;;;;;;;;6224277;22;19954;-87
2022/11/09 15:48:15;;;;;;;;;;;;;;;;;;6248966;22;19996;-86
2022/11/09 15:50:40;;;;;;;;;;;;;;;;;;6248817;22;19985;-87
2022/11/09 15:53:06;;;;;;;;;;;;;;;;;;6223654;22;20009;-87
2022/11/09 15:55:32;;;;;;;;;;;;;;;;;;6223183;22;20296;-87
2022/11/09 15:57:58;;;;;;;;;;;;;;;;;;6223348;22;19922;-86
2022/11/09 16:00:24;;;;;;;;;;;;;;;;;;6248741;22;19950;-90
2022/11/09 16:02:51;;;;;;;;;;;;;;;;;;6249278;22;19915;-87
2022/11/09 16:05:18;;;;;;;;;;;;;;;;;;6223810;22;19922;-87
2022/11/09 16:07:44;;;;;;;;;;;;;;;;;;6248950;22;20029;-86
2022/11/09 16:10:10;;;;;;;;;;;;;;;;;;6248523;22;19911;-86
2022/11/09 16:12:36;;;;;;;;;;;;;;;;;;6223444;22;19978;-86
2022/11/09 16:15:02;;;;;;;;;;;;;;;;;;6248670;22;19915;-86
2022/11/09 16:17:27;;;;;;;;;;;;;;;;;;6248499;22;19911;-87
2022/11/09 16:19:53;;;;;;;;;;;;;;;;;;6248746;22;19911;-87
2022/11/09 16:22:19;;;;;;;;;;;;;;;;;;6223398;22;19918;-87
2022/11/09 16:24:47;;;;;;;;;;;;;;;;;;6248453;22;19911;-87
2022/11/09 16:27:13;;;;;;;;;;;;;;;;;;6248467;22;19981;-87
2022/11/09 16:29:38;;;;;;;;;;;;;;;;;;6224281;22;20248;-86
2022/11/09 16:32:04;;;;;;;;;;;;;;;;;;6223600;22;20305;-86
2022/11/09 16:34:30;;;;;;;;;;;;;;;;;;6248054;22;21853;-86
2022/11/09 16:36:56;;;;;;;;;;;;;;;;;;6248173;22;19921;-86
2022/11/09 16:39:22;;;;;;;;;;;;;;;;;;6248544;22;20240;-86